»·PEaware :: N335AK KSEE-KBUR

N335AK :: KSEE-KBUR

FLIGHT INFORMATION

Flight Status: Arrived
Operator: Privately registered:
United States
More flights under this callsign
Pilot: Gabor H. (24209)
Aircraft: Unknown
(EPIC)
More flights by this aircraft type
Origin: KSEE Gillespie
United States
Destination: KBUR Bob Hope-Burbank
United States
More flights between these airports :: More routes between these airports
Route: +CWARD2 LAX SILEX
File this flight plan on PilotEdge
Remarks:
Altitude:
(Current/Filed)
8,000ft
Speed:
(Current/Filed)
270kts
Departed: 28-Aug-20 10:42 AM
Arrived: 28-Aug-20 11:20 AM
Distance/Time
Traveled:
108nm/0:38
Distance/Time
To Go:
Arrived

Flight Plot

Page will automatically refresh every two minutes.

Flight plan parsing failed; only flown route is shown


Map Options




Map Legend


Flown Route
Filed Route
Departure Airport
Arrival Airport
Navaid (VOR, NDB)
Fix

Horizontal Profiles

Position Reports

Time Latitude Longitude Heading Altitude Ground
Speed
28-Aug-20 10:12 32.821576 -116.970938 352 384ft 0kts
28-Aug-20 10:13 32.821576 -116.970938 352 384ft 0kts
28-Aug-20 10:14 32.821576 -116.970938 352 384ft 0kts
28-Aug-20 10:15 32.821576 -116.970938 352 384ft 0kts
28-Aug-20 10:16 32.821576 -116.970938 352 384ft 0kts
28-Aug-20 10:17 32.821576 -116.970938 352 384ft 0kts
28-Aug-20 10:18 32.821576 -116.970938 352 384ft 0kts
28-Aug-20 10:19 32.821576 -116.970938 352 384ft 0kts
28-Aug-20 10:20 32.821576 -116.970938 352 384ft 0kts
28-Aug-20 10:21 32.821576 -116.970938 352 384ft 0kts
28-Aug-20 10:22 32.821576 -116.970938 352 384ft 0kts
28-Aug-20 10:23 32.821576 -116.970938 352 384ft 0kts
28-Aug-20 10:24 32.821576 -116.970938 352 384ft 0kts
28-Aug-20 10:25 32.821576 -116.970938 352 384ft 0kts
28-Aug-20 10:25 32.821576 -116.970938 352 384ft 0kts
28-Aug-20 10:27 32.821576 -116.970938 352 384ft 0kts
28-Aug-20 10:28 32.821576 -116.970938 352 384ft 0kts
28-Aug-20 10:29 32.821576 -116.970938 352 384ft 0kts
28-Aug-20 10:29 32.821576 -116.970938 352 384ft 0kts
28-Aug-20 10:31 32.821576 -116.970938 352 384ft 0kts
28-Aug-20 10:32 32.821576 -116.970938 352 384ft 0kts
28-Aug-20 10:32 32.821576 -116.970938 352 384ft 0kts
28-Aug-20 10:33 32.821576 -116.970938 352 384ft 0kts
28-Aug-20 10:35 32.821576 -116.970938 352 384ft 0kts
28-Aug-20 10:35 32.821430 -116.971610 257 381ft 8kts
28-Aug-20 10:36 32.825388 -116.971804 359 376ft 12kts
28-Aug-20 10:37 32.825397 -116.968558 101 381ft 13kts
28-Aug-20 10:38 32.824879 -116.965703 102 388ft 6kts
28-Aug-20 10:39 32.825759 -116.964362 0 391ft 3kts
28-Aug-20 10:40 32.826580 -116.965285 283 388ft 6kts
28-Aug-20 10:41 32.834519 -116.994412 313 1196ft 190kts
28-Aug-20 10:42 32.879108 -117.024674 329 4234ft 190kts
28-Aug-20 10:43 32.910750 -117.074830 284 6369ft 215kts
28-Aug-20 10:44 32.927393 -117.145328 283 7995ft 241kts
28-Aug-20 10:45 32.947188 -117.229357 283 7997ft 273kts
28-Aug-20 10:46 32.967577 -117.316297 283 7992ft 272kts
28-Aug-20 10:47 32.987800 -117.402844 283 7990ft 271kts
28-Aug-20 10:48 33.007942 -117.489343 283 7990ft 271kts
28-Aug-20 10:49 33.027979 -117.575689 283 7989ft 270kts
28-Aug-20 10:50 33.047605 -117.660552 283 7992ft 269kts
28-Aug-20 10:51 33.076901 -117.740982 311 7996ft 275kts
28-Aug-20 10:52 33.134484 -117.801420 315 7991ft 275kts
28-Aug-20 10:53 33.193636 -117.859376 333 7981ft 281kts
28-Aug-20 10:54 33.270607 -117.881005 343 7998ft 286kts
28-Aug-20 10:55 33.348788 -117.900503 343 7999ft 287kts
28-Aug-20 10:56 33.416802 -117.940462 318 7451ft 263kts
28-Aug-20 10:57 33.472538 -117.992972 319 6031ft 246kts
28-Aug-20 10:58 33.523128 -118.040868 318 5988ft 211kts
28-Aug-20 10:59 33.568444 -118.083895 318 5998ft 208kts
28-Aug-20 11:00 33.613921 -118.127089 318 5998ft 207kts
28-Aug-20 11:01 33.659629 -118.170575 318 5999ft 211kts
28-Aug-20 11:02 33.705657 -118.214419 317 5999ft 211kts
28-Aug-20 11:03 33.751824 -118.258446 317 5999ft 211kts
28-Aug-20 11:04 33.798066 -118.302618 317 5998ft 213kts
28-Aug-20 11:05 33.844884 -118.347415 316 5999ft 217kts
28-Aug-20 11:06 33.892577 -118.393109 316 6000ft 220kts
28-Aug-20 11:07 33.941671 -118.438520 322 5892ft 224kts
28-Aug-20 11:08 33.992816 -118.479702 322 5002ft 211kts
28-Aug-20 11:09 34.042178 -118.519637 322 4998ft 210kts
28-Aug-20 11:10 34.091652 -118.560055 322 5003ft 224kts
28-Aug-20 11:11 34.141257 -118.600975 322 4124ft 193kts
28-Aug-20 11:12 34.182300 -118.634456 322 4011ft 174kts
28-Aug-20 11:13 34.213694 -118.611910 112 3433ft 190kts
28-Aug-20 11:14 34.199625 -118.557827 86 2219ft 168kts
28-Aug-20 11:15 34.199451 -118.499440 90 2213ft 176kts
28-Aug-20 11:16 34.198756 -118.440722 91 2008ft 159kts
28-Aug-20 11:17 34.198211 -118.394595 91 1295ft 119kts
28-Aug-20 11:18 34.197777 -118.363380 90 779ft 41kts
28-Aug-20 11:19 34.198558 -118.360266 357 779ft 0kts
28-Aug-20 11:20 34.198850 -118.360864 277 779ft 21kts
28-Aug-20 11:21 34.200215 -118.364750 267 779ft 0kts
28-Aug-20 11:22 34.200208 -118.364911 267 779ft 0kts
28-Aug-20 11:23 34.200202 -118.365073 267 779ft 0kts
28-Aug-20 11:24 34.200195 -118.365234 267 779ft 0kts
28-Aug-20 11:25 34.200189 -118.365396 267 779ft 0kts
28-Aug-20 11:26 34.200183 -118.365558 267 779ft 0kts
28-Aug-20 11:27 34.200182 -118.365568 267 779ft 0kts

Navigation Log

Ident Type
Flight plan parsing failed, navigation log unavailable